Time;durP1;ratioP1;P1;durP2;ratioP2;P2;SDS_P1;SDS_P2;PMS_P1;PMS_P2;Temp;Humidity;BMP_temperature;BMP_pressure;BME280_temperature;BME280_humidity;BME280_pressure;Samples;Min_cycle;Max_cycle;Signal;HPM_P1;HPM_P2
2022/07/18 00:00:54;;;;;;;5.25;3.25;;;17.50;99.90;;;;;;5018370;28;20493;-80
2022/07/18 00:03:20;;;;;;;6.28;2.80;;;17.50;99.90;;;;;;5010760;28;20037;-81
2022/07/18 00:05:48;;;;;;;2.85;2.58;;;17.50;99.90;;;;;;5037742;28;20049;-79
2022/07/18 00:08:17;;;;;;;3.47;2.53;;;17.40;99.90;;;;;;5038027;28;20050;-81
2022/07/18 00:10:42;;;;;;;8.75;2.70;;;17.30;99.90;;;;;;5026047;28;20063;-81
2022/07/18 00:13:09;;;;;;;3.65;2.60;;;17.30;99.90;;;;;;5041641;28;20033;-80
2022/07/18 00:15:36;;;;;;;3.13;2.65;;;17.30;99.90;;;;;;5032301;28;20056;-80
2022/07/18 00:18:02;;;;;;;3.20;2.53;;;17.30;99.90;;;;;;5038365;28;20041;-80
2022/07/18 00:20:29;;;;;;;2.53;2.33;;;17.20;99.90;;;;;;5025052;28;20042;-81
2022/07/18 00:22:57;;;;;;;3.15;2.05;;;17.20;99.90;;;;;;5019588;28;20436;-80
2022/07/18 00:25:23;;;;;;;2.60;2.40;;;17.20;99.90;;;;;;5028468;28;20044;-82
2022/07/18 00:27:49;;;;;;;3.08;2.25;;;17.40;99.90;;;;;;5046040;28;20049;-80
2022/07/18 00:30:15;;;;;;;3.17;2.58;;;17.20;99.90;;;;;;5023028;28;20033;-83
2022/07/18 00:32:43;;;;;;;3.15;2.25;;;17.20;99.90;;;;;;5039923;28;20041;-81
2022/07/18 00:35:15;;;;;;;4.30;2.80;;;17.90;99.90;;;;;;5042662;28;20111;-81
2022/07/18 00:37:46;;;;;;;3.70;2.60;;;17.20;99.90;;;;;;5020848;28;20449;-80
2022/07/18 00:40:13;;;;;;;4.32;2.80;;;16.50;99.90;;;;;;5037615;28;20056;-81
2022/07/18 00:42:39;;;;;;;4.40;2.70;;;17.20;99.90;;;;;;5040198;28;20402;-80
2022/07/18 00:45:05;;;;;;;2.67;2.47;;;17.20;99.90;;;;;;5035239;28;20037;-80
2022/07/18 00:47:31;;;;;;;6.45;2.70;;;17.10;99.90;;;;;;5021745;28;20097;-79
2022/07/18 00:49:57;;;;;;;5.90;3.10;;;17.10;99.90;;;;;;5016869;28;20501;-80
2022/07/18 00:52:25;;;;;;;4.63;2.53;;;17.10;99.90;;;;;;5041957;28;20060;-81
2022/07/18 00:54:54;;;;;;;3.35;3.05;;;17.00;99.90;;;;;;5019474;28;20745;-80
2022/07/18 00:57:19;;;;;;;3.92;2.95;;;17.00;99.90;;;;;;5037049;28;20037;-80
2022/07/18 01:02:30;;;;;;;4.45;3.45;;;16.90;99.90;;;;;;5037059;28;20053;-80
2022/07/18 01:04:56;;;;;;;7.13;3.28;;;16.90;99.90;;;;;;5016136;28;20040;-80
2022/07/18 01:07:25;;;;;;;5.90;3.42;;;16.90;99.90;;;;;;5036296;28;20460;-79
2022/07/18 01:09:53;;;;;;;4.30;3.22;;;17.40;99.90;;;;;;5025072;28;20504;-81
2022/07/18 01:12:19;;;;;;;5.82;3.28;;;16.90;99.90;;;;;;5003455;28;20405;-79
2022/07/18 01:14:49;;;;;;;5.53;3.40;;;17.50;99.90;;;;;;5044585;28;20421;-80
2022/07/18 01:17:17;;;;;;;5.55;3.00;;;16.80;99.90;;;;;;5040640;28;20033;-80
2022/07/18 01:19:46;;;;;;;5.38;3.10;;;16.90;99.90;;;;;;5037315;28;20041;-79
2022/07/18 01:22:19;;;;;;;4.75;3.20;;;16.80;99.90;;;;;;5035562;28;20041;-80
2022/07/18 01:24:48;;;;;;;7.20;4.00;;;16.80;99.90;;;;;;5035318;28;20041;-80
2022/07/18 01:27:20;;;;;;;4.95;3.20;;;16.80;99.90;;;;;;5010344;28;20056;-80
2022/07/18 01:29:47;;;;;;;5.57;3.35;;;16.80;99.90;;;;;;5038286;28;20033;-80
2022/07/18 01:32:17;;;;;;;5.65;3.30;;;16.80;99.90;;;;;;5040392;28;20071;-83
2022/07/18 01:34:48;;;;;;;7.55;3.90;;;16.70;99.90;;;;;;5036800;28;20349;-82
2022/07/18 01:37:17;;;;;;;5.25;3.67;;;16.70;99.90;;;;;;5034940;28;20079;-81
2022/07/18 01:39:47;;;;;;;4.88;3.45;;;16.60;99.90;;;;;;5024327;28;20049;-81
2022/07/18 01:42:17;;;;;;;5.70;4.13;;;16.50;99.90;;;;;;5033502;28;20102;-80
2022/07/18 01:44:43;;;;;;;4.60;3.45;;;16.50;99.90;;;;;;5009579;28;20044;-80
2022/07/18 01:47:10;;;;;;;5.60;4.05;;;16.50;99.90;;;;;;5036918;28;20045;-81
2022/07/18 01:49:37;;;;;;;4.95;3.65;;;16.50;99.90;;;;;;5016371;28;20481;-80
2022/07/18 01:52:04;;;;;;;5.97;3.67;;;16.50;99.90;;;;;;5032579;28;20041;-80
2022/07/18 01:54:31;;;;;;;5.57;3.88;;;16.50;99.90;;;;;;5036004;28;20040;-81
2022/07/18 01:56:58;;;;;;;5.10;3.55;;;16.80;99.90;;;;;;5040042;28;20044;-80
2022/07/18 01:59:24;;;;;;;6.47;3.88;;;16.50;99.90;;;;;;5037430;28;20063;-81
2022/07/18 02:01:53;;;;;;;4.82;3.88;;;16.50;99.90;;;;;;5039873;28;20033;-81
2022/07/18 02:04:20;;;;;;;3.75;3.40;;;16.50;99.90;;;;;;5036350;28;20058;-80
2022/07/18 02:06:47;;;;;;;8.13;3.97;;;16.40;99.90;;;;;;5034977;28;20035;-81
2022/07/18 02:09:13;;;;;;;4.82;4.15;;;16.30;99.90;;;;;;5011079;28;20041;-81
2022/07/18 02:11:39;;;;;;;8.93;3.97;;;16.30;99.90;;;;;;5034677;28;20078;-80
2022/07/18 02:14:05;;;;;;;4.80;3.78;;;16.30;99.90;;;;;;5031634;28;20070;-80
2022/07/18 02:16:32;;;;;;;5.35;4.25;;;16.20;99.90;;;;;;5013562;28;20143;-80
2022/07/18 02:18:57;;;;;;;4.30;3.67;;;16.30;99.90;;;;;;5021283;28;20052;-80
2022/07/18 02:21:23;;;;;;;6.15;3.70;;;16.20;99.90;;;;;;5019471;28;20373;-79
2022/07/18 02:23:50;;;;;;;4.88;4.20;;;16.20;99.90;;;;;;5045362;28;20033;-81
2022/07/18 02:26:19;;;;;;;6.53;4.18;;;16.20;99.90;;;;;;5020979;28;20540;-79
2022/07/18 02:28:48;;;;;;;5.00;4.05;;;16.10;99.90;;;;;;5025267;28;20125;-81
2022/07/18 02:31:16;;;;;;;8.35;4.70;;;16.20;99.90;;;;;;5038791;28;20501;-81
2022/07/18 02:33:42;;;;;;;7.53;4.40;;;16.30;99.90;;;;;;5035791;28;20485;-80
2022/07/18 02:36:07;;;;;;;5.95;4.50;;;16.20;99.90;;;;;;5033355;28;20056;-80
2022/07/18 02:38:33;;;;;;;4.95;3.80;;;16.20;99.90;;;;;;5003762;28;20074;-80
2022/07/18 02:40:59;;;;;;;8.38;4.55;;;16.30;99.90;;;;;;5026248;28;20066;-80
2022/07/18 02:43:24;;;;;;;7.50;5.15;;;16.40;99.90;;;;;;5038961;28;20464;-81
2022/07/18 02:45:50;;;;;;;9.40;5.00;;;16.20;99.90;;;;;;5033477;28;20169;-80
2022/07/18 02:48:18;;;;;;;7.35;5.00;;;16.20;99.90;;;;;;5038480;28;20044;-81
2022/07/18 02:50:47;;;;;;;7.22;5.03;;;16.20;99.90;;;;;;5018145;28;20033;-81
2022/07/18 02:53:13;;;;;;;6.30;4.57;;;16.10;99.90;;;;;;5041088;28;20346;-80
2022/07/18 02:55:38;;;;;;;6.45;4.70;;;16.10;99.90;;;;;;5041738;28;20046;-80
2022/07/18 02:58:04;;;;;;;6.07;4.50;;;16.00;99.90;;;;;;5010195;28;20116;-80
2022/07/18 03:00:30;;;;;;;7.13;5.25;;;16.00;99.90;;;;;;5039395;28;20046;-80
2022/07/18 03:02:56;;;;;;;6.93;4.50;;;16.00;99.90;;;;;;5045669;28;20055;-81
2022/07/18 03:05:25;;;;;;;7.43;5.20;;;16.00;99.90;;;;;;5042436;28;20083;-80
2022/07/18 03:07:54;;;;;;;6.35;4.65;;;15.90;99.90;;;;;;5039223;28;20213;-80
2022/07/18 03:10:20;;;;;;;5.68;4.70;;;16.00;99.90;;;;;;5036926;28;20103;-81
2022/07/18 03:12:48;;;;;;;6.43;5.40;;;15.90;99.90;;;;;;5038172;28;20045;-80
2022/07/18 03:15:24;;;;;;;6.47;5.10;;;15.90;99.90;;;;;;5004605;28;20042;-81
2022/07/18 03:17:49;;;;;;;5.90;5.30;;;15.90;99.90;;;;;;5037885;28;20081;-80
2022/07/18 03:20:15;;;;;;;8.90;5.22;;;15.90;99.90;;;;;;5039572;28;20068;-81
2022/07/18 03:22:41;;;;;;;8.40;5.30;;;15.90;99.90;;;;;;5019513;28;20519;-80
2022/07/18 03:25:07;;;;;;;8.27;4.90;;;15.60;99.90;;;;;;5044526;28;20116;-81
2022/07/18 03:27:32;;;;;;;6.28;4.97;;;15.80;99.90;;;;;;5043290;28;20494;-80
2022/07/18 03:29:58;;;;;;;5.60;4.95;;;15.80;99.90;;;;;;5045128;28;20040;-81
2022/07/18 03:32:24;;;;;;;6.35;4.90;;;15.30;99.90;;;;;;5022707;28;20128;-82
2022/07/18 03:34:49;;;;;;;7.10;4.80;;;15.80;99.90;;;;;;5039977;28;20076;-80
2022/07/18 03:37:18;;;;;;;5.25;4.72;;;15.80;99.90;;;;;;5034333;28;20611;-81
2022/07/18 03:39:46;;;;;;;5.20;4.68;;;15.80;99.90;;;;;;5040623;28;20386;-81
2022/07/18 03:42:15;;;;;;;6.90;4.70;;;16.80;99.90;;;;;;5027297;28;20496;-82
2022/07/18 03:44:40;;;;;;;6.35;5.15;;;15.80;99.90;;;;;;5039574;28;20042;-81
2022/07/18 03:47:09;;;;;;;6.93;5.25;;;15.80;99.90;;;;;;5023883;28;20095;-81
2022/07/18 03:49:34;;;;;;;5.47;4.70;;;15.80;99.90;;;;;;5046667;28;20090;-81
2022/07/18 03:52:00;;;;;;;5.00;4.40;;;15.80;99.90;;;;;;5044805;28;20481;-82
2022/07/18 03:54:26;;;;;;;5.50;4.90;;;15.90;99.90;;;;;;5037671;28;20037;-81
2022/07/18 03:56:54;;;;;;;6.88;4.70;;;15.90;99.90;;;;;;5026902;28;20041;-80
2022/07/18 03:59:20;;;;;;;7.95;5.30;;;16.80;99.90;;;;;;5035259;28;20041;-81
2022/07/18 04:01:49;;;;;;;6.45;4.88;;;16.70;99.90;;;;;;5023829;28;20037;-79
2022/07/18 04:04:17;;;;;;;5.57;4.80;;;15.80;99.90;;;;;;5035759;28;20524;-80
2022/07/18 04:06:42;;;;;;;7.28;4.70;;;15.70;99.90;;;;;;5045344;28;20040;-80
2022/07/18 04:09:08;;;;;;;8.95;4.97;;;15.80;99.90;;;;;;5024107;28;20045;-79
2022/07/18 04:11:33;;;;;;;7.90;4.93;;;15.70;99.90;;;;;;5023234;28;20053;-80
2022/07/18 04:13:59;;;;;;;8.50;5.07;;;15.80;99.90;;;;;;5038066;28;20037;-80
2022/07/18 04:16:25;;;;;;;6.13;4.50;;;15.80;99.90;;;;;;5043574;28;20056;-80
2022/07/18 04:18:54;;;;;;;7.03;5.35;;;15.80;99.90;;;;;;5023420;28;20037;-81
2022/07/18 04:21:19;;;;;;;6.85;5.38;;;15.80;99.90;;;;;;5043633;28;20049;-82
2022/07/18 04:23:48;;;;;;;5.97;4.68;;;15.70;99.90;;;;;;5025208;28;20193;-81
2022/07/18 04:26:17;;;;;;;8.63;4.88;;;15.70;99.90;;;;;;5023530;28;20520;-81
2022/07/18 04:28:43;;;;;;;6.57;4.80;;;15.80;99.90;;;;;;5037272;28;20113;-81
2022/07/18 04:31:08;;;;;;;7.50;5.15;;;15.80;99.90;;;;;;5039589;28;20132;-81
2022/07/18 04:33:34;;;;;;;7.38;5.10;;;15.90;99.90;;;;;;5040674;28;20130;-81
2022/07/18 04:36:00;;;;;;;7.47;4.80;;;16.00;99.90;;;;;;5017243;28;21073;-81
2022/07/18 04:38:25;;;;;;;9.20;4.45;;;15.90;99.90;;;;;;5020697;28;20036;-82
2022/07/18 04:40:59;;;;;;;5.97;4.80;;;15.80;99.90;;;;;;5036770;28;20056;-80
2022/07/18 04:43:28;;;;;;;5.93;4.50;;;15.90;99.90;;;;;;5037549;28;20393;-80
2022/07/18 04:45:53;;;;;;;8.95;4.90;;;16.70;99.90;;;;;;5019406;28;20056;-80
2022/07/18 04:48:19;;;;;;;6.57;4.30;;;15.90;99.90;;;;;;5037541;28;20037;-80
2022/07/18 04:50:48;;;;;;;7.38;4.25;;;15.90;99.90;;;;;;5033594;28;20474;-81
2022/07/18 04:53:17;;;;;;;5.22;4.40;;;16.00;99.90;;;;;;5006192;28;20060;-81
2022/07/18 04:55:43;;;;;;;6.15;4.25;;;16.00;99.90;;;;;;5036719;28;20448;-80
2022/07/18 04:58:18;;;;;;;5.95;4.13;;;16.10;99.90;;;;;;5038910;28;20041;-79
2022/07/18 05:00:46;;;;;;;6.10;4.38;;;16.10;99.90;;;;;;5021098;28;20053;-81
2022/07/18 05:03:19;;;;;;;8.00;3.85;;;16.10;99.90;;;;;;5043004;28;20071;-80
2022/07/18 05:05:45;;;;;;;9.10;4.25;;;16.00;99.90;;;;;;5025559;28;20076;-81
2022/07/18 05:08:12;;;;;;;4.75;4.00;;;16.20;99.90;;;;;;5034079;28;20053;-81
2022/07/18 05:10:41;;;;;;;4.63;3.42;;;16.20;99.90;;;;;;5034204;28;20091;-80
2022/07/18 05:13:07;;;;;;;5.03;3.40;;;16.20;99.90;;;;;;5045367;28;20044;-80
2022/07/18 05:15:33;;;;;;;5.20;3.50;;;16.90;99.90;;;;;;5039870;28;20126;-80
2022/07/18 05:17:58;;;;;;;4.45;3.45;;;16.30;99.90;;;;;;5022541;28;20037;-80
2022/07/18 05:20:26;;;;;;;7.70;4.15;;;16.40;99.90;;;;;;5021943;28;20079;-81
2022/07/18 05:22:52;;;;;;;7.53;3.67;;;17.30;99.90;;;;;;5037780;28;20056;-80
2022/07/18 05:25:19;;;;;;;6.63;3.58;;;16.30;99.90;;;;;;5039141;28;20064;-79
2022/07/18 05:27:47;;;;;;;6.05;3.53;;;16.30;99.90;;;;;;5037670;28;20040;-80
2022/07/18 05:30:16;;;;;;;5.47;3.20;;;16.30;99.90;;;;;;5036265;28;20323;-81
2022/07/18 05:32:47;;;;;;;7.00;3.35;;;16.30;99.90;;;;;;5035902;28;20167;-81
2022/07/18 05:35:13;;;;;;;5.55;2.50;;;16.30;99.90;;;;;;5024739;28;20044;-80
2022/07/18 05:37:40;;;;;;;5.38;3.33;;;16.40;99.90;;;;;;5045236;28;20041;-81
2022/07/18 05:40:08;;;;;;;4.90;3.33;;;16.40;99.90;;;;;;5037870;28;20048;-81
2022/07/18 05:42:34;;;;;;;5.35;2.88;;;16.40;99.90;;;;;;5024634;28;20072;-80
2022/07/18 05:45:04;;;;;;;4.53;2.90;;;16.40;99.90;;;;;;5023748;28;20064;-80
2022/07/18 05:47:30;;;;;;;7.55;3.58;;;16.50;99.90;;;;;;5021884;28;20120;-81
2022/07/18 05:49:55;;;;;;;3.67;2.90;;;16.50;99.90;;;;;;5043378;28;20120;-81
2022/07/18 05:52:24;;;;;;;6.60;3.00;;;17.30;99.90;;;;;;5043632;28;20045;-82
2022/07/18 05:54:50;;;;;;;6.90;2.90;;;16.60;99.90;;;;;;5042816;28;20477;-82
2022/07/18 05:57:15;;;;;;;5.60;2.85;;;16.70;99.90;;;;;;5042427;28;20042;-81
2022/07/18 05:59:47;;;;;;;3.10;2.63;;;17.50;99.90;;;;;;5040178;28;20041;-80
2022/07/18 06:02:15;;;;;;;13.25;3.50;;;16.70;99.90;;;;;;5004240;28;20124;-81
2022/07/18 06:04:41;;;;;;;4.18;2.58;;;16.20;99.90;;;;;;5024547;28;20469;-79
2022/07/18 06:07:13;;;;;;;8.13;3.65;;;16.80;99.90;;;;;;5027136;28;20049;-81
2022/07/18 06:09:38;;;;;;;8.60;4.35;;;16.80;99.90;;;;;;5021255;28;20057;-80
2022/07/18 06:12:05;;;;;;;7.38;4.38;;;16.90;99.90;;;;;;5023177;28;20106;-80
2022/07/18 06:14:31;;;;;;;11.00;2.97;;;16.90;99.90;;;;;;5029626;28;20053;-81
2022/07/18 06:16:58;;;;;;;7.13;2.95;;;16.90;99.90;;;;;;5023931;28;20041;-80
2022/07/18 06:19:27;;;;;;;5.90;2.85;;;17.00;99.90;;;;;;5035507;28;20049;-82
2022/07/18 06:21:53;;;;;;;3.72;2.28;;;17.10;99.90;;;;;;5047639;28;20594;-81
2022/07/18 06:24:18;;;;;;;6.05;3.00;;;16.80;99.90;;;;;;5041721;28;20124;-79
2022/07/18 06:26:49;;;;;;;6.40;2.75;;;17.20;99.90;;;;;;5029808;28;20044;-75
2022/07/18 06:29:18;;;;;;;4.50;2.40;;;17.70;99.90;;;;;;5048523;28;20135;-81
2022/07/18 06:31:46;;;;;;;4.47;2.00;;;17.20;99.90;;;;;;5046656;28;20048;-79
2022/07/18 06:34:20;;;;;;;7.93;3.53;;;17.30;99.90;;;;;;5043403;28;20045;-79
2022/07/18 06:36:48;;;;;;;4.80;2.87;;;17.30;99.90;;;;;;5042469;28;20047;-78
2022/07/18 06:39:16;;;;;;;5.40;2.80;;;17.20;99.90;;;;;;5032032;28;20040;-78
2022/07/18 06:41:42;;;;;;;5.65;2.95;;;17.40;99.90;;;;;;5028554;28;20173;-79
2022/07/18 06:44:08;;;;;;;4.38;2.10;;;17.70;99.90;;;;;;5042847;28;20552;-74
2022/07/18 06:46:33;;;;;;;6.13;2.72;;;18.50;99.90;;;;;;5045758;28;20050;-81
2022/07/18 06:48:59;;;;;;;4.47;2.13;;;17.50;99.90;;;;;;5040541;28;20094;-84
2022/07/18 06:51:25;;;;;;;2.38;2.17;;;17.70;99.90;;;;;;5043362;28;20048;-82
2022/07/18 06:53:53;;;;;;;3.20;1.92;;;17.70;99.90;;;;;;5042980;28;20041;-82
2022/07/18 06:56:19;;;;;;;4.55;2.22;;;17.70;99.90;;;;;;5038671;28;20041;-81
2022/07/18 06:58:48;;;;;;;4.15;2.22;;;17.70;99.90;;;;;;5020411;28;20053;-78
2022/07/18 07:01:18;;;;;;;8.10;2.30;;;17.70;99.90;;;;;;5042150;28;20068;-79
2022/07/18 07:03:47;;;;;;;5.05;2.55;;;17.80;99.90;;;;;;5024586;28;20510;-79
2022/07/18 07:06:25;;;;;;;3.45;2.20;;;17.90;99.90;;;;;;5040566;28;20419;-76
2022/07/18 07:08:54;;;;;;;3.65;1.98;;;18.00;99.90;;;;;;5039260;28;20067;-77
2022/07/18 07:11:21;;;;;;;4.90;1.77;;;18.10;99.90;;;;;;5042384;28;20033;-81
2022/07/18 07:13:50;;;;;;;3.65;1.58;;;18.20;99.90;;;;;;5044905;28;20122;-78
2022/07/18 07:16:18;;;;;;;3.25;1.80;;;18.40;99.90;;;;;;5045616;28;20191;-82
2022/07/18 07:18:48;;;;;;;5.15;1.40;;;18.40;99.90;;;;;;5044218;28;20116;-80
2022/07/18 07:21:19;;;;;;;4.10;1.58;;;18.70;99.90;;;;;;5047688;28;20102;-78
2022/07/18 07:23:45;;;;;;;7.47;2.15;;;18.70;99.90;;;;;;5039819;28;20489;-78
2022/07/18 07:26:10;;;;;;;4.40;2.22;;;18.80;99.90;;;;;;5038578;28;20041;-75
2022/07/18 07:28:36;;;;;;;3.80;1.75;;;19.10;99.90;;;;;;5046440;28;20475;-81
2022/07/18 07:31:02;;;;;;;5.00;1.70;;;19.10;99.90;;;;;;5006193;28;20393;-86
2022/07/18 07:33:28;;;;;;;6.35;2.15;;;19.10;99.90;;;;;;5048954;28;20112;-75
2022/07/18 07:35:53;;;;;;;7.60;2.13;;;19.20;99.90;;;;;;5025414;28;20167;-78
2022/07/18 07:38:19;;;;;;;3.35;1.60;;;19.30;99.90;;;;;;5035876;28;20137;-77
2022/07/18 07:40:48;;;;;;;6.13;2.17;;;19.70;99.90;;;;;;5031990;28;20041;-79
2022/07/18 07:43:18;;;;;;;3.40;1.90;;;19.50;99.90;;;;;;5039913;28;20045;-76
2022/07/18 07:45:50;;;;;;;6.55;1.90;;;19.90;99.90;;;;;;5042407;28;20051;-80
2022/07/18 07:48:16;;;;;;;3.85;1.90;;;19.90;99.90;;;;;;5044380;28;20063;-79
2022/07/18 07:50:43;;;;;;;4.53;1.83;;;19.80;99.90;;;;;;5040535;28;20522;-78
2022/07/18 07:53:08;;;;;;;2.92;1.60;;;19.90;99.90;;;;;;5028358;28;20041;-79
2022/07/18 07:55:34;;;;;;;3.88;2.15;;;20.00;99.90;;;;;;5038231;28;20413;-80
2022/07/18 07:58:00;;;;;;;5.43;1.52;;;20.00;99.90;;;;;;5046130;28;20036;-80
2022/07/18 08:00:26;;;;;;;5.90;1.83;;;20.20;99.90;;;;;;5039832;28;20260;-79
2022/07/18 08:02:54;;;;;;;5.10;1.65;;;20.30;99.90;;;;;;5042069;28;20044;-80
2022/07/18 08:05:20;;;;;;;6.07;1.77;;;20.40;99.90;;;;;;5045649;28;20041;-81
2022/07/18 08:07:49;;;;;;;4.47;2.17;;;20.40;99.90;;;;;;5026274;28;20091;-77
2022/07/18 08:10:15;;;;;;;3.45;1.52;;;20.50;99.90;;;;;;5016676;28;20048;-77
2022/07/18 08:12:41;;;;;;;6.90;1.70;;;20.60;99.90;;;;;;5049032;28;20682;-78
2022/07/18 08:15:07;;;;;;;6.20;2.27;;;20.70;99.90;;;;;;4345213;28;10000704;-84
2022/07/18 08:17:33;;;;;;;4.20;1.73;;;20.70;99.90;;;;;;5043220;28;20045;-83
2022/07/18 08:19:59;;;;;;;8.00;1.75;;;21.60;99.90;;;;;;5036993;28;20044;-82
2022/07/18 08:22:24;;;;;;;6.45;1.52;;;20.80;99.90;;;;;;5047703;28;20520;-83
2022/07/18 08:24:50;;;;;;;4.32;1.52;;;20.90;99.90;;;;;;5021123;28;20048;-83
2022/07/18 08:27:16;;;;;;;4.80;1.45;;;21.90;99.90;;;;;;5033110;28;20049;-81
2022/07/18 08:29:42;;;;;;;4.82;1.30;;;21.10;99.90;;;;;;5022136;28;20055;-83
2022/07/18 08:32:08;;;;;;;5.00;1.45;;;21.30;99.90;;;;;;5043645;28;20132;-81
2022/07/18 08:34:34;;;;;;;4.25;1.27;;;21.30;99.90;;;;;;5010799;28;20408;-83
2022/07/18 08:36:59;;;;;;;5.82;1.27;;;21.50;99.90;;;;;;5039053;28;20098;-80
2022/07/18 08:39:25;;;;;;;2.83;1.27;;;21.50;99.90;;;;;;5040211;28;20041;-82
2022/07/18 08:41:55;;;;;;;6.50;1.60;;;21.80;99.90;;;;;;5020542;28;20796;-82
2022/07/18 08:44:24;;;;;;;3.30;0.90;;;21.80;99.90;;;;;;5006327;28;20069;-81
2022/07/18 08:46:56;;;;;;;3.33;1.00;;;21.80;99.90;;;;;;5029161;28;20041;-83
2022/07/18 08:49:26;;;;;;;4.30;1.10;;;22.00;99.90;;;;;;5047832;28;20067;-78
2022/07/18 08:51:53;;;;;;;6.35;1.30;;;22.00;99.90;;;;;;5030362;28;20049;-80
2022/07/18 08:54:18;;;;;;;3.08;1.05;;;22.10;99.90;;;;;;5019461;28;20052;-85
2022/07/18 08:56:47;;;;;;;4.95;1.10;;;22.10;99.90;;;;;;5051423;28;20045;-85
2022/07/18 08:59:13;;;;;;;5.82;1.30;;;22.10;99.90;;;;;;5032010;28;20040;-85
2022/07/18 09:01:38;;;;;;;4.10;1.42;;;22.10;99.90;;;;;;5038146;28;20059;-77
2022/07/18 09:04:18;;;;;;;4.13;1.20;;;22.20;99.90;;;;;;5032491;28;20033;-77
2022/07/18 09:06:46;;;;;;;7.97;1.17;;;22.20;99.70;;;;;;5026714;28;20469;-84
2022/07/18 09:09:17;;;;;;;4.45;0.98;;;22.20;99.30;;;;;;5041657;28;20055;-76
2022/07/18 09:12:00;;;;;;;6.35;1.25;;;22.20;98.90;;;;;;5037635;28;21861;-79
2022/07/18 09:14:40;;;;;;;3.42;1.38;;;22.30;99.10;;;;;;5044539;28;20043;-81
2022/07/18 09:17:20;;;;;;;5.80;1.30;;;22.30;98.70;;;;;;5022119;28;20523;-80
2022/07/18 09:20:01;;;;;;;4.00;1.33;;;22.40;98.80;;;;;;5026633;28;20059;-81
2022/07/18 09:22:35;;;;;;;4.15;0.75;;;22.40;98.90;;;;;;5036069;28;20039;-78
2022/07/18 09:25:11;;;;;;;8.50;1.02;;;22.50;99.40;;;;;;5041923;28;20049;-80
2022/07/18 09:27:48;;;;;;;3.60;0.90;;;22.60;99.10;;;;;;5044207;28;20558;-80
2022/07/18 09:30:28;;;;;;;3.63;1.50;;;22.60;99.20;;;;;;5047332;28;20037;-80
2022/07/18 09:33:02;;;;;;;7.20;1.20;;;22.30;99.40;;;;;;5034620;28;20050;-77
2022/07/18 09:35:35;;;;;;;3.25;1.50;;;22.80;98.60;;;;;;5037821;28;20061;-77
2022/07/18 09:38:11;;;;;;;4.18;1.30;;;22.90;97.10;;;;;;5010415;28;20037;-78
2022/07/18 09:40:39;;;;;;;4.45;1.38;;;23.10;95.20;;;;;;5037523;28;20137;-76
2022/07/18 09:43:07;;;;;;;5.65;1.20;;;23.20;95.30;;;;;;5019041;28;20037;-76
2022/07/18 09:45:35;;;;;;;2.88;1.10;;;23.30;95.10;;;;;;5024571;28;20381;-77
2022/07/18 09:48:06;;;;;;;2.35;1.30;;;23.30;94.60;;;;;;5025414;28;20049;-79
2022/07/18 09:50:41;;;;;;;5.88;1.33;;;23.40;94.90;;;;;;5041785;28;20049;-79
2022/07/18 09:53:16;;;;;;;5.70;1.05;;;23.40;94.80;;;;;;5020687;28;20469;-78
2022/07/18 09:55:52;;;;;;;6.03;1.17;;;23.50;94.60;;;;;;5047514;28;20037;-76
2022/07/18 09:58:24;;;;;;;3.63;1.23;;;23.70;93.60;;;;;;5027392;28;20041;-78
2022/07/18 10:00:53;;;;;;;7.68;1.30;;;23.80;93.10;;;;;;5015570;28;20576;-81
2022/07/18 10:03:23;;;;;;;3.35;1.20;;;23.90;92.10;;;;;;5038003;28;20045;-80
2022/07/18 10:06:01;;;;;;;2.10;0.93;;;24.10;91.40;;;;;;5029478;28;20087;-80
2022/07/18 10:08:31;;;;;;;5.63;1.42;;;24.20;90.80;;;;;;5049104;28;20068;-79
2022/07/18 10:11:01;;;;;;;3.47;1.20;;;24.30;90.40;;;;;;5040463;28;20137;-80
2022/07/18 10:13:29;;;;;;;2.83;1.60;;;24.30;89.50;;;;;;5050019;28;20385;-80
2022/07/18 10:15:55;;;;;;;6.65;2.00;;;24.70;87.70;;;;;;5047081;28;20068;-79
2022/07/18 10:18:27;;;;;;;2.60;1.50;;;24.50;89.00;;;;;;5043849;28;20045;-76
2022/07/18 10:21:05;;;;;;;7.50;1.70;;;24.70;88.50;;;;;;5025863;28;20049;-80
2022/07/18 10:23:51;;;;;;;4.55;1.92;;;24.60;88.00;;;;;;5045744;28;20064;-82
2022/07/18 10:26:19;;;;;;;4.75;1.65;;;24.70;83.90;;;;;;5021658;28;20055;-79
2022/07/18 10:29:05;;;;;;;4.18;1.55;;;24.80;83.20;;;;;;5044939;28;20040;-80
2022/07/18 10:31:32;;;;;;;7.68;1.83;;;24.90;84.90;;;;;;5037325;28;20049;-82
2022/07/18 10:34:06;;;;;;;2.20;1.02;;;24.90;81.70;;;;;;5024625;28;20115;-78
2022/07/18 10:36:33;;;;;;;2.88;1.42;;;24.90;83.30;;;;;;5033638;28;20428;-81
2022/07/18 10:39:25;;;;;;;7.93;1.73;;;24.90;83.80;;;;;;5039266;28;20526;-78
2022/07/18 10:41:54;;;;;;;3.85;1.60;;;25.00;84.00;;;;;;5026957;28;20041;-78
2022/07/18 10:44:31;;;;;;;2.45;1.35;;;25.10;84.20;;;;;;5020750;28;20045;-78
2022/07/18 10:47:03;;;;;;;7.15;1.85;;;25.20;84.40;;;;;;5035397;28;20045;-79
2022/07/18 10:49:53;;;;;;;5.13;1.73;;;25.30;82.70;;;;;;5047224;28;20429;-77
2022/07/18 10:52:33;;;;;;;6.38;2.35;;;25.50;82.00;;;;;;5028559;28;20098;-76
2022/07/18 10:55:02;;;;;;;4.22;1.77;;;25.50;79.60;;;;;;5043584;28;20494;-80
2022/07/18 10:57:29;;;;;;;2.55;2.17;;;25.80;78.70;;;;;;5027558;28;20540;-80
2022/07/18 11:00:08;;;;;;;5.97;1.70;;;25.70;76.90;;;;;;5048244;28;20120;-80
2022/07/18 11:02:35;;;;;;;3.45;1.95;;;25.70;77.30;;;;;;5024445;28;20477;-80
2022/07/18 11:05:01;;;;;;;3.50;1.95;;;25.70;78.40;;;;;;5030440;28;20640;-81
2022/07/18 11:07:27;;;;;;;2.90;1.80;;;25.80;79.20;;;;;;5047448;28;20130;-80
2022/07/18 11:09:52;;;;;;;5.93;2.70;;;26.30;78.00;;;;;;5020589;28;20077;-81
2022/07/18 11:12:19;;;;;;;2.20;1.90;;;26.00;77.40;;;;;;5042962;28;20077;-81
2022/07/18 11:15:17;;;;;;;3.40;2.15;;;26.00;77.60;;;;;;5027635;28;20043;-78
2022/07/18 11:18:01;;;;;;;6.57;2.50;;;26.10;77.40;;;;;;4990459;28;20092;-78
2022/07/18 11:20:37;;;;;;;5.03;2.25;;;26.10;75.00;;;;;;5045288;28;20430;-79
2022/07/18 11:23:13;;;;;;;6.68;2.42;;;26.20;74.80;;;;;;5039230;28;20075;-79
2022/07/18 11:25:38;;;;;;;6.72;2.30;;;26.30;74.90;;;;;;5012607;28;20040;-81
2022/07/18 11:28:08;;;;;;;6.43;2.72;;;26.80;75.80;;;;;;5038016;28;20096;-78
2022/07/18 11:30:34;;;;;;;5.00;2.63;;;26.50;74.40;;;;;;5048172;28;20510;-78
2022/07/18 11:33:00;;;;;;;4.88;2.80;;;26.70;73.70;;;;;;5042824;28;20041;-79
2022/07/18 11:35:26;;;;;;;3.40;2.42;;;26.70;71.50;;;;;;5024877;28;20394;-79
2022/07/18 11:37:55;;;;;;;2.70;2.40;;;26.90;71.60;;;;;;5038611;28;20075;-82
2022/07/18 11:40:24;;;;;;;3.47;3.15;;;27.00;70.40;;;;;;5020477;28;20098;-81
2022/07/18 11:42:49;;;;;;;4.43;2.95;;;27.00;67.70;;;;;;5033989;28;20041;-79
2022/07/18 11:45:25;;;;;;;4.45;2.53;;;27.00;68.20;;;;;;5026450;28;20052;-79
2022/07/18 11:47:54;;;;;;;4.93;2.50;;;27.10;69.50;;;;;;5041707;28;20114;-80
2022/07/18 11:50:37;;;;;;;5.90;2.40;;;27.20;70.40;;;;;;5030170;28;20396;-79
2022/07/18 11:53:03;;;;;;;2.40;2.20;;;27.30;71.60;;;;;;5043992;28;20049;-80
2022/07/18 11:55:37;;;;;;;2.88;2.30;;;27.40;72.90;;;;;;5021869;28;20034;-78
2022/07/18 11:58:11;;;;;;;4.05;2.60;;;27.50;71.50;;;;;;5037965;28;20115;-81
2022/07/18 12:00:37;;;;;;;6.38;2.20;;;27.50;70.90;;;;;;5040528;28;20483;-80
2022/07/18 12:03:25;;;;;;;4.03;2.28;;;27.60;71.30;;;;;;5042053;28;20041;-80
2022/07/18 12:05:53;;;;;;;2.75;2.53;;;27.70;71.20;;;;;;5047055;28;20132;-78
2022/07/18 12:09:03;;;;;;;6.00;2.40;;;27.70;69.60;;;;;;5036452;28;20064;-80
2022/07/18 12:11:32;;;;;;;3.83;2.60;;;27.80;71.50;;;;;;4946098;28;20050;-77
2022/07/18 12:14:04;;;;;;;2.80;2.50;;;27.80;70.80;;;;;;5014883;28;20060;-80
2022/07/18 12:16:57;;;;;;;6.82;3.00;;;27.80;70.00;;;;;;5007546;28;20041;-80
2022/07/18 12:19:36;;;;;;;8.98;2.80;;;27.70;70.40;;;;;;5023088;28;20050;-81
2022/07/18 12:22:11;;;;;;;2.72;2.38;;;27.60;70.00;;;;;;4998918;28;20049;-80
2022/07/18 12:24:49;;;;;;;4.05;2.72;;;27.50;70.60;;;;;;5027019;28;20037;-80
2022/07/18 12:27:18;;;;;;;5.90;2.40;;;27.40;71.70;;;;;;5020906;28;20057;-79
2022/07/18 12:30:08;;;;;;;4.35;2.30;;;27.40;71.50;;;;;;5034468;28;20060;-80
2022/07/18 12:32:55;;;;;;;3.30;2.47;;;27.60;72.00;;;;;;5030551;28;20092;-78
2022/07/18 12:35:25;;;;;;;4.40;2.50;;;27.50;71.30;;;;;;5015154;28;20144;-80
2022/07/18 12:37:55;;;;;;;5.63;2.50;;;27.50;70.40;;;;;;5027550;28;20678;-80
2022/07/18 12:40:24;;;;;;;3.00;2.70;;;27.50;70.90;;;;;;5021300;28;20048;-79
2022/07/18 12:43:24;;;;;;;3.40;2.72;;;27.50;71.00;;;;;;5009126;28;20080;-78
2022/07/18 12:45:50;;;;;;;6.25;2.55;;;27.50;69.40;;;;;;5016286;28;20053;-79
2022/07/18 12:48:19;;;;;;;2.95;2.17;;;27.40;68.40;;;;;;5019480;28;20045;-80
2022/07/18 12:51:03;;;;;;;7.30;2.60;;;27.40;68.90;;;;;;5025722;28;20037;-79
2022/07/18 12:53:31;;;;;;;3.83;2.88;;;27.30;67.80;;;;;;4993526;28;20056;-78
2022/07/18 12:55:57;;;;;;;4.93;2.55;;;27.30;68.40;;;;;;5024962;28;20045;-80
2022/07/18 12:58:25;;;;;;;5.07;2.97;;;27.30;65.20;;;;;;5017820;28;20050;-79